Time;durP1;ratioP1;P1;durP2;ratioP2;P2;SDS_P1;SDS_P2;PMS_P1;PMS_P2;Temp;Humidity;BMP_temperature;BMP_pressure;BME280_temperature;BME280_humidity;BME280_pressure;Samples;Min_cycle;Max_cycle;Signal;HPM_P1;HPM_P2
2022/02/08 00:01:36;;;;;;;5.97;2.50;;;5.40;99.90;;;;;;5125456;27;20292;-84
2022/02/08 00:04:01;;;;;;;7.60;2.35;;;5.40;99.90;;;;;;5109431;27;20055;-84
2022/02/08 00:08:56;;;;;;;2.63;2.03;;;5.40;99.90;;;;;;5100918;27;20050;-83
2022/02/08 00:11:22;;;;;;;10.05;3.55;;;5.30;99.90;;;;;;5112529;28;20039;-82
2022/02/08 00:13:47;;;;;;;4.07;2.33;;;5.40;99.90;;;;;;5115057;27;20035;-83
2022/02/08 00:16:13;;;;;;;7.93;3.92;;;5.30;99.90;;;;;;5130591;27;20178;-85
2022/02/08 00:18:39;;;;;;;4.22;2.80;;;5.40;99.90;;;;;;5094335;27;20178;-83
2022/02/08 00:21:05;;;;;;;4.57;3.05;;;5.30;99.90;;;;;;5096592;28;20046;-84
2022/02/08 00:23:30;;;;;;;5.22;3.47;;;5.30;99.90;;;;;;5112749;27;20050;-83
2022/02/08 00:25:56;;;;;;;6.03;3.35;;;5.30;99.90;;;;;;5118103;27;20100;-83
2022/02/08 00:28:22;;;;;;;14.93;3.72;;;5.30;99.90;;;;;;5108535;27;20446;-84
2022/02/08 00:30:48;;;;;;;4.07;2.92;;;5.40;99.90;;;;;;5116614;27;20493;-84
2022/02/08 00:33:13;;;;;;;7.35;3.58;;;5.40;99.90;;;;;;5111969;27;20384;-81
2022/02/08 00:35:39;;;;;;;6.75;2.92;;;5.50;99.90;;;;;;5104558;27;20456;-82
2022/02/08 00:38:05;;;;;;;12.13;3.13;;;5.50;99.90;;;;;;5111647;27;20047;-82
2022/02/08 00:40:31;;;;;;;3.58;2.50;;;5.60;99.90;;;;;;5117793;27;20047;-82
2022/02/08 00:42:58;;;;;;;6.72;3.88;;;5.60;99.90;;;;;;5097995;28;20044;-83
2022/02/08 00:47:56;;;;;;;5.13;3.53;;;5.70;99.90;;;;;;5107165;28;20520;-84
2022/02/08 00:50:22;;;;;;;22.75;2.97;;;5.60;99.90;;;;;;5112823;28;20115;-83
2022/02/08 00:52:48;;;;;;;3.58;2.40;;;5.70;99.90;;;;;;5114407;27;20471;-81
2022/02/08 00:55:14;;;;;;;9.70;2.38;;;5.80;99.90;;;;;;5111865;28;20043;-82
2022/02/08 00:57:40;;;;;;;10.77;3.60;;;5.70;99.90;;;;;;5117369;27;20043;-83
2022/02/08 01:00:07;;;;;;;5.63;2.47;;;6.50;99.90;;;;;;5098784;28;20093;-83
2022/02/08 01:02:34;;;;;;;3.90;2.47;;;5.80;99.90;;;;;;5096348;28;20059;-82
2022/02/08 01:05:02;;;;;;;5.43;3.17;;;5.80;99.90;;;;;;5114254;28;20031;-82
2022/02/08 01:07:28;;;;;;;9.43;3.90;;;6.10;99.90;;;;;;5100066;28;20044;-83
2022/02/08 01:12:22;;;;;;;9.05;3.85;;;5.90;99.90;;;;;;5113822;28;20049;-80
2022/02/08 01:14:51;;;;;;;9.20;3.75;;;5.80;99.90;;;;;;5115474;27;20097;-82
2022/02/08 01:17:18;;;;;;;7.25;3.42;;;5.90;99.90;;;;;;5111234;28;20066;-82
2022/02/08 01:19:50;;;;;;;7.15;3.17;;;6.20;99.90;;;;;;5124767;28;20051;-83
2022/02/08 01:22:16;;;;;;;10.27;3.47;;;5.90;99.90;;;;;;5111039;28;20516;-80
2022/02/08 01:24:43;;;;;;;4.47;2.53;;;6.00;99.90;;;;;;5116100;28;20039;-82
2022/02/08 01:27:11;;;;;;;11.00;3.92;;;6.00;99.90;;;;;;5102613;28;20471;-83
2022/02/08 01:48:13;;;;;;;6.15;3.40;;;6.10;99.90;;;;;;5117101;27;20047;-81
2022/02/08 01:50:40;;;;;;;3.58;3.25;;;6.10;99.90;;;;;;5115439;27;20046;-81
2022/02/08 01:53:07;;;;;;;4.95;3.85;;;6.10;99.90;;;;;;5096957;28;20052;-81
2022/02/08 01:55:34;;;;;;;4.85;3.65;;;6.10;99.90;;;;;;5120981;27;20035;-83
2022/02/08 01:58:01;;;;;;;9.77;3.42;;;6.10;99.90;;;;;;5116148;27;20477;-79
2022/02/08 02:00:28;;;;;;;4.90;3.28;;;6.20;99.90;;;;;;5116903;27;20047;-80
2022/02/08 02:02:55;;;;;;;4.50;2.67;;;6.20;99.90;;;;;;5090189;28;20498;-83
2022/02/08 02:05:21;;;;;;;3.95;3.30;;;6.20;99.90;;;;;;5118745;27;20039;-81
2022/02/08 02:07:48;;;;;;;6.78;4.22;;;6.30;99.90;;;;;;5116066;27;20050;-82
2022/02/08 02:10:19;;;;;;;6.90;4.07;;;6.30;99.90;;;;;;5112358;27;20071;-80
2022/02/08 02:12:54;;;;;;;3.80;2.85;;;6.30;99.90;;;;;;5122178;27;20117;-82
2022/02/08 02:15:20;;;;;;;7.93;4.53;;;6.30;99.90;;;;;;5116362;27;20042;-82
2022/02/08 02:17:46;;;;;;;13.05;4.75;;;6.30;99.90;;;;;;5115190;27;20039;-80
2022/02/08 02:20:12;;;;;;;10.27;6.45;;;6.30;99.90;;;;;;5119250;27;20043;-80
2022/02/08 02:22:38;;;;;;;8.65;4.00;;;6.30;99.90;;;;;;5100346;28;20423;-82
2022/02/08 02:25:04;;;;;;;6.68;4.55;;;6.30;99.90;;;;;;5113805;28;20035;-82
2022/02/08 02:27:30;;;;;;;;;;;6.30;99.90;;;;;;5114523;27;20032;-82
2022/02/08 02:29:55;;;;;;;7.75;5.03;;;6.30;99.90;;;;;;5112299;27;19931;-81
2022/02/08 02:32:21;;;;;;;10.95;4.20;;;6.40;99.90;;;;;;5120276;27;20042;-82
2022/02/08 02:34:48;;;;;;;8.45;5.00;;;6.80;99.90;;;;;;5116381;27;20059;-79
2022/02/08 02:37:14;;;;;;;8.38;5.57;;;6.40;99.90;;;;;;5117929;27;20051;-82
2022/02/08 02:39:40;;;;;;;9.13;4.50;;;6.40;99.90;;;;;;5115253;28;20369;-80
2022/02/08 02:42:14;;;;;;;7.30;5.05;;;6.40;99.90;;;;;;5114503;28;20039;-81
2022/02/08 02:44:40;;;;;;;8.75;4.68;;;6.50;99.90;;;;;;5116700;27;20039;-79
2022/02/08 02:47:06;;;;;;;;;;;6.50;99.90;;;;;;5112912;28;20039;-80
2022/02/08 02:49:32;;;;;;;17.08;5.25;;;;;;;;;;5120339;27;19926;-78
2022/02/08 02:51:58;;;;;;;6.75;4.70;;;;;;;;;;5118880;27;20051;-79
2022/02/08 02:54:24;;;;;;;;;;;6.60;99.90;;;;;;5127337;27;20387;-80
2022/02/08 02:56:49;;;;;;;9.43;4.70;;;6.70;99.90;;;;;;5114639;27;20010;-79
2022/02/08 02:59:18;;;;;;;16.85;6.07;;;6.60;99.90;;;;;;5114983;27;20031;-80
2022/02/08 03:02:18;;;;;;;19.00;4.93;;;6.70;99.90;;;;;;5114839;27;20065;-81
2022/02/08 03:05:03;;;;;;;11.07;5.15;;;6.30;99.90;;;;;;5112781;27;20058;-81
2022/02/08 03:18:36;;;;;;;16.58;5.05;;;7.00;99.90;;;;;;5121082;27;20047;-81
2022/02/08 03:21:04;;;;;;;12.55;4.95;;;7.00;99.90;;;;;;5113888;27;20377;-82
2022/02/08 03:23:30;;;;;;;15.00;5.65;;;7.10;99.90;;;;;;5114889;27;20549;-81
2022/02/08 03:25:55;;;;;;;6.97;3.33;;;7.10;99.90;;;;;;5114964;27;20043;-79
2022/02/08 03:28:21;;;;;;;15.13;4.72;;;7.20;99.90;;;;;;5106728;27;20039;-81
2022/02/08 03:30:47;;;;;;;;;;;7.20;99.90;;;;;;5113327;27;20055;-80
2022/02/08 03:33:17;;;;;;;11.85;4.95;;;7.50;99.90;;;;;;5114234;27;19923;-78
2022/02/08 03:35:43;;;;;;;5.80;4.13;;;7.50;99.90;;;;;;5114491;27;20074;-79
2022/02/08 03:38:11;;;;;;;7.28;3.85;;;7.70;99.90;;;;;;5111591;28;20043;-79
2022/02/08 03:40:40;;;;;;;9.70;4.68;;;7.60;99.90;;;;;;5113293;27;21832;-80
2022/02/08 03:45:48;;;;;;;8.68;4.22;;;;;;;;;;5130238;27;20052;-79
2022/02/08 03:48:17;;;;;;;12.93;4.43;;;;;;;;;;5125077;27;20046;-80
2022/02/08 03:50:45;;;;;;;9.75;4.05;;;;;;;;;;5121180;27;20075;-77
2022/02/08 03:53:12;;;;;;;11.05;3.67;;;;;;;;;;5118489;27;20082;-80
2022/02/08 03:55:38;;;;;;;9.05;4.57;;;7.80;99.90;;;;;;5113581;27;20134;-80
2022/02/08 03:58:04;;;;;;;9.85;3.58;;;8.30;99.90;;;;;;5113397;27;20126;-78
2022/02/08 04:00:35;;;;;;;9.98;4.30;;;7.90;99.90;;;;;;5120273;27;20483;-82
2022/02/08 04:03:01;;;;;;;6.45;3.33;;;7.80;99.90;;;;;;5127394;27;20040;-82
2022/02/08 04:05:38;;;;;;;13.43;4.20;;;8.30;99.90;;;;;;5105117;27;20156;-80
2022/02/08 04:08:07;;;;;;;9.30;3.33;;;8.00;99.90;;;;;;5116695;27;20043;-79
2022/02/08 04:10:33;;;;;;;9.93;3.55;;;8.10;99.90;;;;;;5111593;28;20096;-81
2022/02/08 04:13:17;;;;;;;8.05;3.85;;;8.10;99.90;;;;;;5102980;27;20110;-81
2022/02/08 04:47:58;;;;;;;3.75;2.70;;;8.50;99.90;;;;;;5112238;27;20100;-79
2022/02/08 04:50:26;;;;;;;11.02;3.22;;;8.40;99.90;;;;;;5109595;27;20069;-80
2022/02/08 04:52:57;;;;;;;5.15;3.20;;;8.30;99.90;;;;;;5099246;27;20031;-82
2022/02/08 04:55:37;;;;;;;7.72;2.63;;;8.70;99.90;;;;;;5081740;28;20173;-81
2022/02/08 05:00:59;;;;;;;5.55;2.45;;;8.60;99.90;;;;;;5100135;28;20073;-81
2022/02/08 05:29:00;;;;;;;3.85;2.22;;;;;;;;;;5113978;28;20043;-80
2022/02/08 05:49:06;;;;;;;1.58;1.33;;;;;;;;;;5113375;28;20464;-79
2022/02/08 05:54:17;;;;;;;6.53;1.77;;;;;;;;;;5113586;28;20076;-81
2022/02/08 05:56:42;;;;;;;;;;;;;;;;;;5112932;28;20396;-80
2022/02/08 05:59:09;;;;;;;2.47;1.40;;;;;;;;;;5117673;28;19920;-82
2022/02/08 06:01:36;;;;;;;2.60;1.70;;;;;;;;;;5119378;28;20032;-81
2022/02/08 06:04:02;;;;;;;4.13;1.85;;;;;;;;;;5109028;28;20071;-81
2022/02/08 06:06:31;;;;;;;14.65;2.88;;;;;;;;;;5105880;28;20031;-81
2022/02/08 06:08:57;;;;;;;2.40;1.77;;;;;;;;;;5113713;28;20098;-80
2022/02/08 06:11:25;;;;;;;3.55;1.88;;;;;;;;;;5112419;28;20041;-80
2022/02/08 06:13:52;;;;;;;2.95;1.40;;;;;;;;;;5112528;28;20047;-80
2022/02/08 06:16:21;;;;;;;2.30;1.40;;;;;;;;;;5113312;27;20047;-78
2022/02/08 06:18:47;;;;;;;2.78;1.90;;;;;;;;;;5103967;27;20050;-82
2022/02/08 06:21:14;;;;;;;2.22;1.10;;;;;;;;;;5118750;27;20412;-81
2022/02/08 06:23:41;;;;;;;5.75;1.50;;;;;;;;;;5109871;27;20077;-81
2022/02/08 06:26:07;;;;;;;4.13;2.08;;;;;;;;;;5117096;27;20160;-82
2022/02/08 06:28:33;;;;;;;2.25;1.33;;;;;;;;;;5118498;27;20551;-81
2022/02/08 06:30:59;;;;;;;8.88;1.85;;;;;;;;;;5117305;27;20039;-78
2022/02/08 06:33:25;;;;;;;;;;;;;;;;;;5112567;27;20047;-80
2022/02/08 06:35:51;;;;;;;6.53;1.65;;;;;;;;;;5119922;27;19926;-83
2022/02/08 06:38:19;;;;;;;3.47;1.40;;;;;;;;;;5096482;27;20725;-80
2022/02/08 06:40:49;;;;;;;2.15;1.67;;;;;;;;;;5125987;27;20035;-82
2022/02/08 06:43:16;;;;;;;3.47;1.73;;;;;;;;;;5100454;27;20038;-80
2022/02/08 06:45:42;;;;;;;3.05;1.52;;;;;;;;;;5113521;27;20392;-80
2022/02/08 06:48:10;;;;;;;;;;;;;;;;;;5088094;27;20471;-79
2022/02/08 06:50:36;;;;;;;5.57;2.00;;;;;;;;;;5110342;27;19923;-77
2022/02/08 06:53:02;;;;;;;5.15;1.40;;;;;;;;;;5112687;27;20396;-78
2022/02/08 06:55:28;;;;;;;2.13;1.33;;;;;;;;;;5110449;27;20031;-80
2022/02/08 07:00:37;;;;;;;5.55;1.80;;;;;;;;;;5114310;27;20035;-83
2022/02/08 07:03:07;;;;;;;5.95;1.63;;;;;;;;;;5102141;27;20065;-78
2022/02/08 07:05:33;;;;;;;3.88;1.92;;;;;;;;;;5125937;27;20047;-81
2022/02/08 07:07:59;;;;;;;2.90;1.88;;;;;;;;;;5118693;27;20122;-80
2022/02/08 07:10:27;;;;;;;2.42;1.40;;;;;;;;;;5099756;27;20031;-79
2022/02/08 07:12:54;;;;;;;4.97;1.70;;;;;;;;;;5098094;27;20414;-79
2022/02/08 07:15:21;;;;;;;6.43;1.60;;;;;;;;;;5090231;27;20432;-79
2022/02/08 07:17:47;;;;;;;2.65;1.45;;;;;;;;;;5106553;27;20044;-79
2022/02/08 07:20:14;;;;;;;3.08;1.73;;;;;;;;;;5115197;27;20071;-80
2022/02/08 07:22:40;;;;;;;2.95;1.60;;;;;;;;;;5104231;27;20381;-79
2022/02/08 07:25:07;;;;;;;2.17;1.50;;;;;;;;;;5108063;27;20047;-76
2022/02/08 07:27:33;;;;;;;3.45;1.70;;;;;;;;;;5094982;27;20081;-76
2022/02/08 07:29:59;;;;;;;2.55;1.58;;;;;;;;;;5109196;27;20094;-76
2022/02/08 07:32:35;;;;;;;10.38;1.90;;;;;;;;;;5095519;28;20133;-78
2022/02/08 07:35:52;;;;;;;5.05;1.60;;;;;;;;;;5106816;27;20083;-76
2022/02/08 07:40:42;;;;;;;3.72;1.42;;;;;;;;;;5110160;27;20116;-77
2022/02/08 07:43:08;;;;;;;4.28;2.30;;;;;;;;;;5105720;28;20044;-78
2022/02/08 07:45:35;;;;;;;7.53;1.73;;;;;;;;;;5107285;27;20154;-78
2022/02/08 07:48:01;;;;;;;11.02;1.83;;;;;;;;;;5110687;27;20035;-75
2022/02/08 07:50:27;;;;;;;7.07;1.25;;;;;;;;;;5111601;27;20133;-78
2022/02/08 07:52:54;;;;;;;6.78;2.42;;;;;;;;;;5117168;27;20042;-78
2022/02/08 07:55:23;;;;;;;4.90;1.42;;;;;;;;;;5124927;27;20044;-75
2022/02/08 07:57:50;;;;;;;1.13;0.98;;;;;;;;;;5107765;27;20145;-77
2022/02/08 08:00:16;;;;;;;4.38;1.83;;;;;;;;;;5110717;27;20071;-77
2022/02/08 08:02:45;;;;;;;3.08;1.40;;;;;;;;;;5118103;27;20154;-78
2022/02/08 08:05:12;;;;;;;;;;;;;;;;;;5110112;27;20396;-78
2022/02/08 08:07:40;;;;;;;1.67;1.10;;;;;;;;;;5108616;27;19919;-79
2022/02/08 08:10:06;;;;;;;3.35;1.40;;;;;;;;;;5107515;27;20371;-77
2022/02/08 08:12:34;;;;;;;3.13;1.40;;;;;;;;;;5087397;28;20049;-77
2022/02/08 08:15:08;;;;;;;2.63;1.17;;;;;;;;;;5096446;27;20490;-80
2022/02/08 08:20:03;;;;;;;3.60;1.00;;;;;;;;;;5105097;27;20051;-80
2022/02/08 08:22:29;;;;;;;;;;;;;;;;;;5107105;27;20131;-79
2022/02/08 08:24:58;;;;;;;;;;;;;;;;;;5113810;27;19924;-81
2022/02/08 08:27:24;;;;;;;4.57;1.45;;;;;;;;;;5116284;27;19923;-79
2022/02/08 08:29:50;;;;;;;;;;;;;;;;;;5103346;28;20714;-81
2022/02/08 08:32:16;;;;;;;5.30;1.00;;;;;;;;;;5111597;27;19919;-77
2022/02/08 08:34:42;;;;;;;2.33;1.50;;;;;;;;;;5116669;27;20031;-78
2022/02/08 08:37:08;;;;;;;;;;;;;;;;;;5109697;27;20092;-78
2022/02/08 08:39:41;;;;;;;6.88;1.52;;;;;;;;;;5109656;27;20411;-78
2022/02/08 08:42:23;;;;;;;2.25;1.45;;;;;;;;;;5109376;27;20059;-77
2022/02/08 08:45:05;;;;;;;2.80;1.50;;;;;;;;;;5117513;27;20734;-76
2022/02/08 08:50:31;;;;;;;11.93;1.63;;;;;;;;;;5109866;27;20053;-76
2022/02/08 08:52:58;;;;;;;6.65;1.02;;;;;;;;;;5110277;27;20043;-78
2022/02/08 08:55:32;;;;;;;4.93;1.00;;;;;;;;;;5111320;27;20037;-84
2022/02/08 08:58:04;;;;;;;1.27;1.00;;;;;;;;;;5116192;27;20051;-79
2022/02/08 09:00:30;;;;;;;;;;;;;;;;;;5094875;28;20096;-76
2022/02/08 09:02:56;;;;;;;4.25;1.52;;;;;;;;;;5112762;27;19919;-80
2022/02/08 09:05:23;;;;;;;8.07;1.73;;;;;;;;;;5106922;28;20125;-79
2022/02/08 09:07:49;;;;;;;4.07;1.65;;;;;;;;;;5115841;27;20039;-79
2022/02/08 09:10:19;;;;;;;3.65;1.40;;;;;;;;;;5108451;28;20098;-79
2022/02/08 09:23:48;;;;;;;2.35;1.30;;;;;;;;;;5097019;28;20054;-80
2022/02/08 09:28:57;;;;;;;4.03;1.45;;;;;;;;;;5104047;28;20040;-80
2022/02/08 09:31:24;;;;;;;2.67;1.35;;;;;;;;;;5107791;28;20118;-81
2022/02/08 09:33:50;;;;;;;5.88;1.20;;;;;;;;;;5113543;28;20041;-80
2022/02/08 09:36:19;;;;;;;5.90;2.08;;;;;;;;;;5099934;28;20050;-80
2022/02/08 09:38:51;;;;;;;3.00;1.30;;;;;;;;;;5090361;28;20055;-80
2022/02/08 09:41:17;;;;;;;12.65;1.60;;;;;;;;;;5091287;28;20044;-80
2022/02/08 09:43:43;;;;;;;2.40;1.27;;;;;;;;;;5107182;28;20058;-82
2022/02/08 09:46:10;;;;;;;;;;;;;;;;;;5101350;28;20046;-79
2022/02/08 09:48:53;;;;;;;8.07;1.13;;;;;;;;;;5118327;27;19984;-82
2022/02/08 09:51:19;;;;;;;4.97;1.40;;;;;;;;;;5122609;27;20321;-82
2022/02/08 09:53:45;;;;;;;;;;;;;;;;;;5098943;28;20036;-78
2022/02/08 09:56:12;;;;;;;4.30;1.73;;;;;;;;;;5112448;27;19923;-76
2022/02/08 09:58:39;;;;;;;7.00;1.73;;;;;;;;;;5110752;27;20071;-80
2022/02/08 10:01:07;;;;;;;5.78;1.45;;;;;;;;;;5119229;27;20043;-80
2022/02/08 10:03:34;;;;;;;1.95;0.68;;;;;;;;;;5118673;27;20074;-80
2022/02/08 10:06:01;;;;;;;7.75;2.38;;;;;;;;;;5120417;27;20047;-81
2022/02/08 10:08:27;;;;;;;3.22;1.15;;;;;;;;;;5097467;27;20051;-83
2022/02/08 10:10:53;;;;;;;;;;;;;;;;;;5111946;27;20065;-77
2022/02/08 10:13:43;;;;;;;1.88;1.27;;;;;;;;;;5111126;27;20363;-81
2022/02/08 10:19:21;;;;;;;0.70;0.70;;;;;;;;;;5115498;27;20502;-82
2022/02/08 10:22:05;;;;;;;8.45;1.63;;;;;;;;;;5101148;27;20052;-82
2022/02/08 10:24:35;;;;;;;3.13;1.42;;;;;;;;;;5104503;27;20092;-81
2022/02/08 10:27:19;;;;;;;1.60;1.25;;;;;;;;;;5111098;27;20555;-80
2022/02/08 10:37:46;;;;;;;4.40;1.48;;;;;;;;;;5124413;27;20095;-79
2022/02/08 10:40:17;;;;;;;4.05;1.55;;;;;;;;;;5100786;27;20098;-79
2022/02/08 10:42:57;;;;;;;7.43;1.83;;;;;;;;;;5104371;27;20035;-79
2022/02/08 10:45:29;;;;;;;4.18;1.00;;;;;;;;;;5114861;27;20049;-80
2022/02/08 10:48:05;;;;;;;3.17;1.42;;;;;;;;;;5108310;27;20039;-82
2022/02/08 10:50:32;;;;;;;5.03;1.60;;;;;;;;;;5104264;27;20823;-81
2022/02/08 10:53:08;;;;;;;3.63;1.55;;;;;;;;;;5111953;27;20480;-79
2022/02/08 10:55:45;;;;;;;2.38;1.38;;;;;;;;;;5126572;27;20043;-84
2022/02/08 10:58:30;;;;;;;5.05;1.35;;;;;;;;;;5114060;27;20501;-85
2022/02/08 11:01:08;;;;;;;4.00;1.75;;;;;;;;;;5116108;27;20040;-81
2022/02/08 11:03:42;;;;;;;3.45;1.63;;;;;;;;;;5115972;27;20062;-81
2022/02/08 11:11:45;;;;;;;3.73;1.80;;;;;;;;;;5113355;27;20071;-82
2022/02/08 11:24:56;;;;;;;2.72;1.45;;;;;;;;;;5116022;27;20126;-81
2022/02/08 11:27:23;;;;;;;8.27;1.63;;;;;;;;;;5107708;27;20054;-81
2022/02/08 11:29:58;;;;;;;3.63;1.20;;;;;;;;;;5111945;27;20511;-81
2022/02/08 12:02:25;;;;;;;5.88;1.45;;;;;;;;;;5106579;27;20039;-80
2022/02/08 12:07:37;;;;;;;1.88;1.20;;;;;;;;;;5112618;27;20043;-78
2022/02/08 12:10:40;;;;;;;7.55;1.35;;;;;;;;;;5103427;27;20051;-78
2022/02/08 12:13:22;;;;;;;6.63;1.45;;;;;;;;;;5109693;27;20384;-80
2022/02/08 12:33:18;;;;;;;2.35;1.42;;;;;;;;;;5111462;27;20044;-84
2022/02/08 13:00:12;;;;;;;1.08;0.98;;;;;;;;;;5087586;27;20039;-80
2022/02/08 13:05:36;;;;;;;3.10;1.45;;;;;;;;;;5117087;27;20472;-81
2022/02/08 14:18:48;;;;;;;3.42;1.60;;;;;;;;;;5117725;27;20043;-80
2022/02/08 14:24:20;;;;;;;3.50;1.35;;;;;;;;;;5120565;27;20067;-81
2022/02/08 14:29:54;;;;;;;2.85;1.35;;;;;;;;;;5124136;27;20123;-78
2022/02/08 15:08:39;;;;;;;2.10;1.30;;;;;;;;;;5113689;27;20044;-83
2022/02/08 15:10:40;;;;;;;6.05;1.15;;;;;;;;;;5101863;27;20047;-82
2022/02/08 15:13:07;;;;;;;2.50;1.23;;;;;;;;;;5119867;27;20044;-84
2022/02/08 15:18:37;;;;;;;4.63;1.35;;;;;;;;;;5099143;27;20039;-87
2022/02/08 15:21:08;;;;;;;10.18;1.58;;;;;;;;;;5088768;27;20530;-84
2022/02/08 15:23:35;;;;;;;2.15;1.45;;;;;;;;;;5128683;27;20054;-83
2022/02/08 15:26:01;;;;;;;;;;;;;;;;;;5105175;28;20493;-83
2022/02/08 15:28:28;;;;;;;1.67;1.30;;;;;;;;;;5101172;27;20053;-84
2022/02/08 15:30:55;;;;;;;6.50;1.48;;;;;;;;;;5092007;28;20150;-85
2022/02/08 15:33:22;;;;;;;2.85;1.27;;;;;;;;;;5111827;27;20054;-83
2022/02/08 15:35:48;;;;;;;2.13;1.45;;;;;;;;;;5112773;27;20047;-84
2022/02/08 15:38:15;;;;;;;1.58;1.17;;;;;;;;;;5113109;27;20126;-83
2022/02/08 15:40:41;;;;;;;6.82;1.35;;;;;;;;;;5102063;28;20568;-83
2022/02/08 15:43:08;;;;;;;;;;;;;;;;;;5098502;27;20676;-83
2022/02/08 15:45:46;;;;;;;8.73;1.67;;;;;;;;;;5101561;27;20027;-83
2022/02/08 15:48:14;;;;;;;2.25;1.48;;;;;;;;;;5111764;27;20127;-82
2022/02/08 15:56:02;;;;;;;5.95;1.88;;;;;;;;;;5114489;27;20069;-86
2022/02/08 16:01:14;;;;;;;6.07;1.90;;;;;;;;;;5115629;27;20610;-83
2022/02/08 16:19:51;;;;;;;4.70;1.92;;;;;;;;;;5109949;28;20374;-85
2022/02/08 16:25:04;;;;;;;5.28;1.35;;;;;;;;;;5083317;28;20046;-82
2022/02/08 16:59:36;;;;;;;2.70;1.65;;;;;;;;;;5104700;28;20039;-83
2022/02/08 17:02:05;;;;;;;3.38;1.48;;;;;;;;;;5110037;28;20075;-82
2022/02/08 17:04:32;;;;;;;2.05;1.25;;;;;;;;;;5100494;28;20069;-83
2022/02/08 17:06:59;;;;;;;8.88;1.92;;;;;;;;;;5097150;28;20044;-82
2022/02/08 17:09:51;;;;;;;4.43;1.45;;;;;;;;;;5101594;28;20035;-81
2022/02/08 17:12:19;;;;;;;3.20;1.77;;;;;;;;;;5097778;28;20393;-82
2022/02/08 17:47:40;;;;;;;6.60;2.22;;;;;;;;;;5099300;28;20389;-81
2022/02/08 17:50:02;;;;;;;9.23;2.27;;;;;;;;;;5103576;28;20447;-82
2022/02/08 17:52:29;;;;;;;2.42;1.60;;;;;;;;;;5103873;28;20040;-81
2022/02/08 17:54:55;;;;;;;4.35;2.05;;;;;;;;;;5089886;28;20127;-82
2022/02/08 17:57:21;;;;;;;3.33;2.03;;;;;;;;;;5089837;28;20044;-83
2022/02/08 17:59:47;;;;;;;;;;;;;;;;;;5080069;28;20046;-81
2022/02/08 18:02:13;;;;;;;2.72;1.95;;;;;;;;;;5091232;28;20133;-84
2022/02/08 18:04:39;;;;;;;;;;;;;;;;;;5090659;28;20040;-81
2022/02/08 18:07:05;;;;;;;6.15;1.95;;;;;;;;;;5085085;28;20645;-82
2022/02/08 18:09:32;;;;;;;3.00;1.40;;;;;;;;;;5074408;28;20044;-82
2022/02/08 18:12:00;;;;;;;;;;;;;;;;;;5094173;28;20118;-78
2022/02/08 18:14:28;;;;;;;8.30;2.13;;;;;;;;;;5083598;28;19916;-80
2022/02/08 18:19:58;;;;;;;1.85;1.42;;;;;;;;;;5089642;28;20487;-82
2022/02/08 18:25:30;;;;;;;6.88;1.98;;;;;;;;;;5104197;28;20055;-81
2022/02/08 19:19:32;;;;;;;1.70;1.05;;;;;;;;;;5103103;28;20047;-83
2022/02/08 19:21:58;;;;;;;3.83;1.35;;;;;;;;;;5099227;28;20047;-82
2022/02/08 19:24:24;;;;;;;;;;;;;;;;;;5101635;28;20040;-82
2022/02/08 19:26:51;;;;;;;10.55;1.67;;;;;;;;;;5110012;28;20459;-82
2022/02/08 19:29:18;;;;;;;4.00;1.73;;;;;;;;;;5103623;28;20058;-81
2022/02/08 19:31:45;;;;;;;4.05;1.58;;;;;;;;;;5088954;28;20379;-81
2022/02/08 19:34:11;;;;;;;8.80;1.67;;;;;;;;;;5100632;28;20048;-82
2022/02/08 19:36:37;;;;;;;;;;;;;;;;;;5086048;28;20140;-81
2022/02/08 19:39:04;;;;;;;4.80;1.70;;;;;;;;;;5092227;28;20344;-82
2022/02/08 19:41:30;;;;;;;5.63;2.15;;;;;;;;;;5098438;28;20048;-81
2022/02/08 19:43:56;;;;;;;11.15;1.85;;;;;;;;;;5095972;28;20047;-81
2022/02/08 19:46:23;;;;;;;9.57;2.40;;;;;;;;;;5089666;28;20052;-82
2022/02/08 19:48:49;;;;;;;3.78;2.08;;;;;;;;;;5102629;28;20077;-82
2022/02/08 19:51:15;;;;;;;;;;;;;;;;;;5100985;28;20083;-82
2022/02/08 19:53:43;;;;;;;3.63;2.03;;;;;;;;;;5088482;28;19920;-80
2022/02/08 19:58:42;;;;;;;3.20;1.50;;;;;;;;;;5100923;28;20127;-82
2022/02/08 20:01:13;;;;;;;5.53;2.55;;;;;;;;;;5076156;28;20047;-81
2022/02/08 20:04:23;;;;;;;1.77;1.45;;;;;;;;;;5093707;28;20060;-82
2022/02/08 20:06:28;;;;;;;9.57;2.25;;;;;;;;;;5081710;28;20063;-83
2022/02/08 20:08:55;;;;;;;3.42;1.50;;;;;;;;;;5075047;28;20071;-83
2022/02/08 20:11:22;;;;;;;10.65;2.28;;;;;;;;;;5079377;28;20043;-81
2022/02/08 20:13:52;;;;;;;7.75;1.95;;;;;;;;;;5077447;28;20477;-81
2022/02/08 20:16:20;;;;;;;2.38;1.65;;;;;;;;;;5075315;28;20047;-82
2022/02/08 20:19:00;;;;;;;4.57;1.92;;;;;;;;;;5094934;28;20143;-80
2022/02/08 20:21:28;;;;;;;6.50;2.35;;;;;;;;;;5099774;28;20035;-81
2022/02/08 20:23:57;;;;;;;3.83;2.08;;;;;;;;;;5078824;28;20764;-83
2022/02/08 20:26:28;;;;;;;4.35;2.30;;;;;;;;;;5095368;28;20493;-84
2022/02/08 20:28:56;;;;;;;6.22;2.65;;;;;;;;;;5061006;28;22065;-83
2022/02/08 20:31:24;;;;;;;9.65;2.30;;;;;;;;;;5092668;28;20040;-79
2022/02/08 20:33:51;;;;;;;2.28;1.80;;;;;;;;;;5083189;28;20634;-80
2022/02/08 20:36:17;;;;;;;4.22;2.17;;;;;;;;;;5103662;28;20164;-78
2022/02/08 20:38:48;;;;;;;2.10;1.70;;;;;;;;;;5085979;28;20135;-82
2022/02/08 20:41:20;;;;;;;3.38;2.20;;;;;;;;;;5096738;28;20723;-85
2022/02/08 20:43:46;;;;;;;8.00;2.30;;;;;;;;;;5093430;28;20044;-83
2022/02/08 20:46:14;;;;;;;8.75;2.28;;;;;;;;;;5078162;28;20105;-83
2022/02/08 20:48:41;;;;;;;2.45;1.95;;;;;;;;;;5098791;28;20035;-84
2022/02/08 20:51:08;;;;;;;3.72;2.08;;;;;;;;;;5074523;28;20090;-83
2022/02/08 21:01:31;;;;;;;11.52;1.88;;;;;;;;;;5079620;28;20666;-82
2022/02/08 21:04:03;;;;;;;4.45;1.65;;;;;;;;;;5076888;28;20051;-83
2022/02/08 21:06:30;;;;;;;8.88;2.90;;;;;;;;;;5076116;28;20040;-84
2022/02/08 21:08:57;;;;;;;17.73;2.85;;;;;;;;;;5091083;28;20044;-80
2022/02/08 21:11:34;;;;;;;5.70;1.48;;;;;;;;;;5075493;28;20047;-82
2022/02/08 21:14:04;;;;;;;4.28;2.00;;;;;;;;;;5089986;28;20036;-83
2022/02/08 21:16:34;;;;;;;4.53;1.67;;;;;;;;;;5095983;28;20047;-82
2022/02/08 21:19:00;;;;;;;3.97;1.90;;;;;;;;;;5109908;27;20126;-82
2022/02/08 21:21:26;;;;;;;;;;;;;;;;;;5097573;28;20056;-80
2022/02/08 21:23:54;;;;;;;5.57;2.60;;;;;;;;;;5091622;28;19923;-81
2022/02/08 21:26:27;;;;;;;4.38;1.90;;;;;;;;;;5073282;28;20040;-83
2022/02/08 21:46:10;;;;;;;4.30;2.28;;;;;;;;;;5093001;28;20700;-82
2022/02/08 21:50:03;;;;;;;6.47;2.53;;;;;;;;;;5092085;28;20082;-83
2022/02/08 21:52:34;;;;;;;6.57;2.92;;;;;;;;;;5103533;28;20038;-83
2022/02/08 21:55:04;;;;;;;5.43;2.55;;;;;;;;;;5084943;28;20457;-84
2022/02/08 21:57:42;;;;;;;6.78;2.05;;;;;;;;;;5078004;28;20089;-81
2022/02/08 22:00:10;;;;;;;4.28;2.75;;;;;;;;;;5103122;28;20101;-79
2022/02/08 22:02:37;;;;;;;3.80;2.42;;;;;;;;;;5088997;28;20127;-81
2022/02/08 22:05:03;;;;;;;2.17;1.63;;;;;;;;;;5113184;27;20043;-82
2022/02/08 22:07:30;;;;;;;3.03;1.92;;;;;;;;;;5117592;27;20047;-80
2022/02/08 22:09:57;;;;;;;6.57;2.58;;;;;;;;;;5098832;28;20040;-80
2022/02/08 22:16:04;;;;;;;4.15;1.80;;;;;;;;;;5095439;28;20123;-79
2022/02/08 22:22:58;;;;;;;3.75;2.63;;;;;;;;;;5094182;28;20044;-80
2022/02/08 22:27:59;;;;;;;4.82;1.95;;;;;;;;;;5099816;28;20131;-78
2022/02/08 22:30:43;;;;;;;2.38;1.80;;;;;;;;;;5097372;28;20067;-80
2022/02/08 22:33:09;;;;;;;6.55;3.20;;;;;;;;;;5088046;28;20048;-80
2022/02/08 22:35:40;;;;;;;;;;;;;;;;;;5099423;28;20040;-79
2022/02/08 22:38:18;;;;;;;5.57;2.88;;;;;;;;;;5120592;27;19931;-80
2022/02/08 22:40:50;;;;;;;3.88;2.35;;;;;;;;;;5082144;28;20047;-80
2022/02/08 22:43:21;;;;;;;4.13;2.42;;;;;;;;;;5080758;28;20045;-80
2022/02/08 22:45:47;;;;;;;4.50;2.65;;;;;;;;;;5082947;28;20043;-81
2022/02/08 22:48:13;;;;;;;4.13;2.33;;;;;;;;;;5101540;28;20048;-80
2022/02/08 22:50:40;;;;;;;5.63;3.50;;;;;;;;;;5093768;28;20044;-81
2022/02/08 22:53:06;;;;;;;3.80;2.53;;;;;;;;;;5102208;28;20039;-81
2022/02/08 22:55:33;;;;;;;4.68;3.33;;;;;;;;;;5105707;28;20039;-78
2022/02/08 22:58:10;;;;;;;3.58;2.50;;;;;;;;;;5105716;28;20119;-80
2022/02/08 23:00:38;;;;;;;3.90;2.90;;;;;;;;;;5085023;28;20445;-80
2022/02/08 23:03:05;;;;;;;4.05;2.88;;;;;;;;;;5089990;28;20576;-81
2022/02/08 23:05:31;;;;;;;9.27;2.88;;;;;;;;;;5100982;28;20161;-80
2022/02/08 23:07:58;;;;;;;3.88;2.85;;;;;;;;;;5097054;28;20036;-80
2022/02/08 23:10:29;;;;;;;3.22;2.15;;;;;;;;;;5102690;28;20139;-80
2022/02/08 23:12:59;;;;;;;3.67;2.53;;;;;;;;;;5103423;28;20419;-79
2022/02/08 23:15:39;;;;;;;2.70;2.22;;;;;;;;;;5093786;28;20050;-81
2022/02/08 23:37:17;;;;;;;3.22;2.55;;;;;;;;;;5089723;28;20052;-80
2022/02/08 23:39:44;;;;;;;6.25;2.83;;;;;;;;;;5070003;28;20054;-81
2022/02/08 23:42:12;;;;;;;2.83;2.15;;;;;;;;;;5074521;28;20044;-81
2022/02/08 23:44:41;;;;;;;9.68;2.25;;;;;;;;;;5096157;28;20124;-82
2022/02/08 23:47:11;;;;;;;8.55;2.63;;;;;;;;;;5089263;28;20036;-80
2022/02/08 23:49:43;;;;;;;7.50;2.88;;;;;;;;;;5097327;28;20040;-82
2022/02/08 23:52:14;;;;;;;5.53;3.55;;;;;;;;;;5096907;28;20040;-81
2022/02/08 23:54:40;;;;;;;13.98;3.03;;;;;;;;;;5100222;28;20381;-80
2022/02/08 23:57:15;;;;;;;7.10;3.25;;;;;;;;;;5099378;28;20054;-81
2022/02/08 23:59:49;;;;;;;6.38;2.72;;;;;;;;;;5078331;28;20123;-81
